ESCFESSV

Guest
Details From ESCF - Linkoping Malmen
To ESSV - Visby
Flight Number -
Tags generated
Created
Modified
Stats Distance 100 nm / 186 km
Max Altitude 0 ft / 0 m
Waypoints 3
Social Downloads 0
Likes 0
Share VATSIM

Download

Looking for another format? Having issues loading an existing format? Contact us
Advertisement - Login to hide

Notes

Basic altitude profile: - Ascent Rate: 2500ft/min - Ascent Speed: 250kts - Cruise Altitude: 35000ft - Cruise Speed: 420kts - Descent Rate: 1500ft/min - Descent Speed: 250kts Options: - Use NATs: yes - Use PACOTS: yes - Use low airways: yes - Use high airways: yes

Route

ESCF VSB ESSV

ID Type Via Altitude Latitude Longitude Leg Dist Tot Dist Heading (true) Name
O ESCF APT - 0 ft / 0 m 58.39940˚ 15.52671˚ - 0 nm - Linkoping Malmen
VSB VOR - 0 ft / 0 m 57.65953˚ 18.34686˚ 100 nm 100 nm 115° / 118° VISBY VOR-DME
O ESSV APT - 0 ft / 0 m 57.65641˚ 18.34245˚ 0 nm 100 nm 217° / 217° Visby

Altitude Profile

Advertisement - Login to hide

ESCF

Details ICAO ESCF
Name Linkoping Malmen
Region Sweden
Timezone Europe/Stockholm (UTC+1.0)
Stats Elevation 308 ft / 94 m (AMSL)
Location 58.399398° 15.526710°
Runways 2
Magnetic Variation 4.995° E

METAR

ESCF 151550Z AUTO 26008KT 9999 BKN012/// OVC015/// 01/M00 Q0989

Decode

TAF

Not found

Departure Runways

ID Width Length Bearing (true) Bearing (mag) Surface Threshold Offset Overrun Length
01 115 ft / 35 m 7,253 ft / 2,211 m 18.29° 13.29° Asphalt 0 ft / 0 m 1,070 ft / 326 m
08 121 ft / 37 m 6,115 ft / 1,864 m 83.21° 78.21° Asphalt 0 ft / 0 m 0 ft / 0 m
19 115 ft / 35 m 7,253 ft / 2,211 m 198.30° 193.30° Asphalt 0 ft / 0 m 392 ft / 119 m
26 121 ft / 37 m 6,115 ft / 1,864 m 263.24° 258.24° Asphalt 0 ft / 0 m 0 ft / 0 m

ESSV

Details ICAO ESSV (VBY)
Name Visby
Region Sweden
Timezone Europe/Stockholm (UTC+1.0)
Stats Elevation 164 ft / 50 m (AMSL)
Location 57.656405° 18.342448°
Runways 2
Magnetic Variation 5.913° E

METAR

ESSV 151550Z 25014KT 9999 -DZ BKN011 03/01 Q0989 R21/29//84

Decode

TAF

Not found

Destination Runways

ID Width Length Bearing (true) Bearing (mag) Surface Threshold Offset Overrun Length
03 148 ft / 45 m 6,552 ft / 1,997 m 20.95° 15.04° Asphalt 0 ft / 0 m 0 ft / 0 m
10 131 ft / 40 m 3,599 ft / 1,097 m 101.41° 95.50° Grass 0 ft / 0 m 0 ft / 0 m
21 148 ft / 45 m 6,552 ft / 1,997 m 200.96° 195.05° Asphalt 0 ft / 0 m 0 ft / 0 m
28 131 ft / 40 m 3,599 ft / 1,097 m 281.43° 275.52° Grass 0 ft / 0 m 0 ft / 0 m

Approach Navaids

Runway Type Ident Frequency Range Bearing (true) Bearing (mag) Slope Elevation
21 Localiser SV 110.30 MHz 18 nm / 33 km 200.95° 195.04° - 164 ft / 50 m (AMSL)
21 Glidescope SV 110.30 MHz 10 nm / 19 km 200.95° 195.04° 3.00° 164 ft / 50 m (AMSL)